sensor_id;sensor_type;location;lat;lon;timestamp;pressure;altitude;pressure_sealevel;temperature;humidity
73674;BME280;61975;48.660;10.164;2023-07-16T00:00:10;95421.38;;;20.84;100.00
73674;BME280;61975;48.660;10.164;2023-07-16T00:02:38;95444.47;;;20.91;100.00
73674;BME280;61975;48.660;10.164;2023-07-16T00:05:04;95443.59;;;20.82;100.00
73674;BME280;61975;48.660;10.164;2023-07-16T00:07:31;95434.09;;;20.88;100.00
73674;BME280;61975;48.660;10.164;2023-07-16T00:09:56;95455.09;;;21.00;100.00
73674;BME280;61975;48.660;10.164;2023-07-16T00:12:21;95441.44;;;20.98;100.00
73674;BME280;61975;48.660;10.164;2023-07-16T00:14:47;95439.31;;;21.02;100.00
73674;BME280;61975;48.660;10.164;2023-07-16T00:17:13;95466.50;;;20.96;100.00
73674;BME280;61975;48.660;10.164;2023-07-16T00:19:38;95466.72;;;21.02;100.00
73674;BME280;61975;48.660;10.164;2023-07-16T00:22:04;95485.81;;;20.98;100.00
73674;BME280;61975;48.660;10.164;2023-07-16T00:24:29;95468.63;;;21.05;100.00
73674;BME280;61975;48.660;10.164;2023-07-16T00:26:54;95486.81;;;21.04;100.00
73674;BME280;61975;48.660;10.164;2023-07-16T00:29:20;95486.34;;;21.05;100.00
73674;BME280;61975;48.660;10.164;2023-07-16T00:31:45;95490.78;;;20.81;100.00
73674;BME280;61975;48.660;10.164;2023-07-16T00:34:11;95510.88;;;20.58;100.00
73674;BME280;61975;48.660;10.164;2023-07-16T00:36:38;95522.47;;;20.60;100.00
73674;BME280;61975;48.660;10.164;2023-07-16T00:39:03;95546.50;;;20.40;100.00
73674;BME280;61975;48.660;10.164;2023-07-16T00:41:29;95550.63;;;20.23;100.00
73674;BME280;61975;48.660;10.164;2023-07-16T00:43:54;95542.84;;;20.27;100.00
73674;BME280;61975;48.660;10.164;2023-07-16T00:46:19;95544.47;;;20.28;100.00
73674;BME280;61975;48.660;10.164;2023-07-16T00:48:45;95514.91;;;20.32;100.00
73674;BME280;61975;48.660;10.164;2023-07-16T00:51:11;95517.50;;;20.39;100.00
73674;BME280;61975;48.660;10.164;2023-07-16T00:53:37;95521.47;;;20.42;100.00
73674;BME280;61975;48.660;10.164;2023-07-16T00:56:03;95543.97;;;20.29;100.00
73674;BME280;61975;48.660;10.164;2023-07-16T00:58:28;95547.81;;;20.23;100.00
73674;BME280;61975;48.660;10.164;2023-07-16T01:00:54;95567.94;;;20.37;100.00
73674;BME280;61975;48.660;10.164;2023-07-16T01:03:19;95577.28;;;20.34;100.00
73674;BME280;61975;48.660;10.164;2023-07-16T01:08:58;95570.72;;;20.25;100.00
73674;BME280;61975;48.660;10.164;2023-07-16T01:11:25;95588.16;;;20.20;100.00
73674;BME280;61975;48.660;10.164;2023-07-16T01:13:51;95593.28;;;20.09;100.00
73674;BME280;61975;48.660;10.164;2023-07-16T01:16:21;95572.25;;;20.13;100.00
73674;BME280;61975;48.660;10.164;2023-07-16T01:18:47;95586.84;;;20.08;100.00
73674;BME280;61975;48.660;10.164;2023-07-16T01:21:13;95588.09;;;20.07;100.00
73674;BME280;61975;48.660;10.164;2023-07-16T01:23:50;95595.19;;;19.99;100.00
73674;BME280;61975;48.660;10.164;2023-07-16T01:31:33;95581.69;;;19.78;100.00
73674;BME280;61975;48.660;10.164;2023-07-16T01:34:00;95589.72;;;19.64;100.00
73674;BME280;61975;48.660;10.164;2023-07-16T01:36:27;95583.00;;;19.74;100.00
73674;BME280;61975;48.660;10.164;2023-07-16T01:38:54;95586.88;;;19.80;100.00
73674;BME280;61975;48.660;10.164;2023-07-16T01:41:19;95594.34;;;19.86;100.00
73674;BME280;61975;48.660;10.164;2023-07-16T01:43:44;95600.13;;;19.95;100.00
73674;BME280;61975;48.660;10.164;2023-07-16T01:46:10;95599.53;;;19.88;100.00
73674;BME280;61975;48.660;10.164;2023-07-16T01:48:37;95613.91;;;20.06;100.00
73674;BME280;61975;48.660;10.164;2023-07-16T01:51:03;95609.94;;;20.19;100.00
73674;BME280;61975;48.660;10.164;2023-07-16T01:53:29;95605.00;;;20.23;100.00
73674;BME280;61975;48.660;10.164;2023-07-16T01:55:55;95604.44;;;20.28;100.00
73674;BME280;61975;48.660;10.164;2023-07-16T01:58:20;95591.13;;;20.29;100.00
73674;BME280;61975;48.660;10.164;2023-07-16T02:00:46;95597.66;;;20.26;100.00
73674;BME280;61975;48.660;10.164;2023-07-16T02:03:13;95597.75;;;20.22;100.00
73674;BME280;61975;48.660;10.164;2023-07-16T02:05:38;95570.94;;;20.02;100.00
73674;BME280;61975;48.660;10.164;2023-07-16T02:08:04;95565.22;;;20.05;100.00
73674;BME280;61975;48.660;10.164;2023-07-16T02:10:29;95555.63;;;20.03;100.00
73674;BME280;61975;48.660;10.164;2023-07-16T02:12:55;95571.47;;;20.13;100.00
73674;BME280;61975;48.660;10.164;2023-07-16T02:15:20;95561.22;;;20.19;100.00
73674;BME280;61975;48.660;10.164;2023-07-16T02:17:45;95570.28;;;20.26;100.00
73674;BME280;61975;48.660;10.164;2023-07-16T02:20:11;95569.03;;;20.27;100.00
73674;BME280;61975;48.660;10.164;2023-07-16T02:22:37;95548.41;;;20.30;100.00
73674;BME280;61975;48.660;10.164;2023-07-16T02:25:03;95553.16;;;20.33;100.00
73674;BME280;61975;48.660;10.164;2023-07-16T02:27:29;95544.25;;;20.35;100.00
73674;BME280;61975;48.660;10.164;2023-07-16T02:29:54;95536.56;;;20.35;100.00
73674;BME280;61975;48.660;10.164;2023-07-16T02:32:19;95524.50;;;20.35;100.00
73674;BME280;61975;48.660;10.164;2023-07-16T02:34:45;95529.34;;;20.34;100.00
73674;BME280;61975;48.660;10.164;2023-07-16T02:37:11;95536.56;;;20.35;100.00
73674;BME280;61975;48.660;10.164;2023-07-16T02:39:36;95529.78;;;20.33;100.00
73674;BME280;61975;48.660;10.164;2023-07-16T02:42:01;95534.19;;;20.34;100.00
73674;BME280;61975;48.660;10.164;2023-07-16T02:44:27;95537.81;;;20.34;100.00
73674;BME280;61975;48.660;10.164;2023-07-16T02:46:52;95544.25;;;20.35;100.00
73674;BME280;61975;48.660;10.164;2023-07-16T02:49:18;95546.25;;;20.34;100.00
73674;BME280;61975;48.660;10.164;2023-07-16T02:51:43;95545.00;;;20.35;100.00
73674;BME280;61975;48.660;10.164;2023-07-16T02:54:08;95557.53;;;20.34;100.00
73674;BME280;61975;48.660;10.164;2023-07-16T02:56:34;95555.53;;;20.35;100.00
73674;BME280;61975;48.660;10.164;2023-07-16T02:59:00;95573.41;;;20.28;100.00
73674;BME280;61975;48.660;10.164;2023-07-16T03:01:25;95592.72;;;20.30;100.00
73674;BME280;61975;48.660;10.164;2023-07-16T03:03:50;95619.41;;;19.97;100.00
73674;BME280;61975;48.660;10.164;2023-07-16T03:06:16;95635.84;;;20.14;100.00
73674;BME280;61975;48.660;10.164;2023-07-16T03:08:41;95635.31;;;20.19;100.00
73674;BME280;61975;48.660;10.164;2023-07-16T03:11:07;95637.69;;;20.21;100.00
73674;BME280;61975;48.660;10.164;2023-07-16T03:13:32;95627.53;;;20.23;100.00
73674;BME280;61975;48.660;10.164;2023-07-16T03:15:58;95614.22;;;20.24;100.00
73674;BME280;61975;48.660;10.164;2023-07-16T03:18:27;95613.78;;;20.25;100.00
73674;BME280;61975;48.660;10.164;2023-07-16T03:20:53;95619.41;;;20.25;100.00
73674;BME280;61975;48.660;10.164;2023-07-16T03:23:19;95627.88;;;20.25;100.00
73674;BME280;61975;48.660;10.164;2023-07-16T03:25:44;95632.28;;;20.26;100.00
73674;BME280;61975;48.660;10.164;2023-07-16T03:28:10;95654.13;;;20.22;100.00
73674;BME280;61975;48.660;10.164;2023-07-16T03:30:35;95654.31;;;20.15;100.00
73674;BME280;61975;48.660;10.164;2023-07-16T03:33:02;95664.72;;;20.18;100.00
73674;BME280;61975;48.660;10.164;2023-07-16T03:35:28;95668.22;;;20.22;100.00
73674;BME280;61975;48.660;10.164;2023-07-16T03:37:53;95671.84;;;20.23;100.00
73674;BME280;61975;48.660;10.164;2023-07-16T03:40:24;95690.00;;;20.22;100.00
73674;BME280;61975;48.660;10.164;2023-07-16T03:42:50;95700.03;;;20.23;100.00
73674;BME280;61975;48.660;10.164;2023-07-16T03:45:15;95703.66;;;20.23;100.00
73674;BME280;61975;48.660;10.164;2023-07-16T03:47:40;95715.38;;;20.22;100.00
73674;BME280;61975;48.660;10.164;2023-07-16T03:50:06;95702.97;;;20.03;100.00
73674;BME280;61975;48.660;10.164;2023-07-16T03:52:32;95688.50;;;20.01;100.00
73674;BME280;61975;48.660;10.164;2023-07-16T03:54:57;95692.44;;;19.59;100.00
73674;BME280;61975;48.660;10.164;2023-07-16T03:57:23;95683.91;;;19.63;100.00
73674;BME280;61975;48.660;10.164;2023-07-16T03:59:48;95684.91;;;19.21;100.00
73674;BME280;61975;48.660;10.164;2023-07-16T04:02:14;95668.03;;;19.21;100.00
73674;BME280;61975;48.660;10.164;2023-07-16T04:04:39;95681.00;;;19.34;100.00
73674;BME280;61975;48.660;10.164;2023-07-16T04:07:05;95699.28;;;19.26;100.00
73674;BME280;61975;48.660;10.164;2023-07-16T04:09:30;95676.38;;;19.08;100.00
73674;BME280;61975;48.660;10.164;2023-07-16T04:11:56;95668.47;;;19.35;100.00
73674;BME280;61975;48.660;10.164;2023-07-16T04:14:21;95704.47;;;19.44;100.00
73674;BME280;61975;48.660;10.164;2023-07-16T04:16:46;95718.81;;;19.49;100.00
73674;BME280;61975;48.660;10.164;2023-07-16T04:19:12;95732.19;;;19.29;100.00
73674;BME280;61975;48.660;10.164;2023-07-16T04:21:37;95735.78;;;19.10;100.00
73674;BME280;61975;48.660;10.164;2023-07-16T04:24:05;95732.78;;;19.01;100.00
73674;BME280;61975;48.660;10.164;2023-07-16T04:26:31;95757.06;;;19.11;100.00
73674;BME280;61975;48.660;10.164;2023-07-16T04:28:56;95763.63;;;19.24;100.00
73674;BME280;61975;48.660;10.164;2023-07-16T04:31:22;95752.47;;;19.21;100.00
73674;BME280;61975;48.660;10.164;2023-07-16T04:33:48;95747.59;;;19.05;100.00
73674;BME280;61975;48.660;10.164;2023-07-16T04:36:15;95749.22;;;19.22;100.00
73674;BME280;61975;48.660;10.164;2023-07-16T04:38:41;95732.91;;;19.33;100.00
73674;BME280;61975;48.660;10.164;2023-07-16T04:41:06;95733.56;;;19.01;100.00
73674;BME280;61975;48.660;10.164;2023-07-16T04:43:31;95719.06;;;19.03;100.00
73674;BME280;61975;48.660;10.164;2023-07-16T04:45:57;95707.22;;;19.12;100.00
73674;BME280;61975;48.660;10.164;2023-07-16T04:48:22;95728.72;;;19.22;100.00
73674;BME280;61975;48.660;10.164;2023-07-16T04:50:47;95710.53;;;19.26;100.00
73674;BME280;61975;48.660;10.164;2023-07-16T04:53:13;95713.50;;;19.19;100.00
73674;BME280;61975;48.660;10.164;2023-07-16T04:55:39;95712.50;;;19.29;100.00
73674;BME280;61975;48.660;10.164;2023-07-16T04:58:05;95737.28;;;19.34;100.00
73674;BME280;61975;48.660;10.164;2023-07-16T05:00:34;95736.41;;;19.37;100.00
73674;BME280;61975;48.660;10.164;2023-07-16T05:02:59;95745.16;;;19.23;100.00
73674;BME280;61975;48.660;10.164;2023-07-16T05:05:24;95752.38;;;19.24;100.00
73674;BME280;61975;48.660;10.164;2023-07-16T05:07:50;95755.56;;;19.26;100.00
73674;BME280;61975;48.660;10.164;2023-07-16T05:10:15;95749.94;;;19.26;100.00
73674;BME280;61975;48.660;10.164;2023-07-16T05:12:41;95741.19;;;19.21;100.00
73674;BME280;61975;48.660;10.164;2023-07-16T05:15:07;95737.94;;;19.22;100.00
73674;BME280;61975;48.660;10.164;2023-07-16T05:17:32;95749.56;;;19.24;100.00
73674;BME280;61975;48.660;10.164;2023-07-16T05:19:58;95756.91;;;19.18;100.00
73674;BME280;61975;48.660;10.164;2023-07-16T05:22:23;95762.50;;;19.02;100.00
73674;BME280;61975;48.660;10.164;2023-07-16T05:24:48;95763.13;;;19.09;100.00
73674;BME280;61975;48.660;10.164;2023-07-16T05:27:14;95786.75;;;18.96;100.00
73674;BME280;61975;48.660;10.164;2023-07-16T05:29:39;95799.38;;;18.68;100.00
73674;BME280;61975;48.660;10.164;2023-07-16T05:32:05;95816.91;;;18.76;100.00
73674;BME280;61975;48.660;10.164;2023-07-16T05:34:31;95810.69;;;18.65;100.00
73674;BME280;61975;48.660;10.164;2023-07-16T05:36:56;95802.50;;;18.74;100.00
73674;BME280;61975;48.660;10.164;2023-07-16T05:39:22;95800.41;;;18.78;100.00
73674;BME280;61975;48.660;10.164;2023-07-16T05:41:47;95794.53;;;18.69;100.00
73674;BME280;61975;48.660;10.164;2023-07-16T05:44:13;95780.00;;;18.74;100.00
73674;BME280;61975;48.660;10.164;2023-07-16T05:46:39;95761.22;;;18.87;100.00
73674;BME280;61975;48.660;10.164;2023-07-16T05:49:04;95769.88;;;18.96;100.00
73674;BME280;61975;48.660;10.164;2023-07-16T05:51:30;95795.78;;;18.87;100.00
73674;BME280;61975;48.660;10.164;2023-07-16T05:53:55;95792.97;;;18.68;100.00
73674;BME280;61975;48.660;10.164;2023-07-16T05:56:21;95790.22;;;18.84;100.00
73674;BME280;61975;48.660;10.164;2023-07-16T05:58:46;95801.34;;;18.91;100.00
73674;BME280;61975;48.660;10.164;2023-07-16T06:01:11;95806.16;;;18.90;100.00
73674;BME280;61975;48.660;10.164;2023-07-16T06:03:37;95797.44;;;18.85;100.00
73674;BME280;61975;48.660;10.164;2023-07-16T06:06:02;95793.63;;;18.95;100.00
73674;BME280;61975;48.660;10.164;2023-07-16T06:08:28;95780.25;;;18.99;100.00
73674;BME280;61975;48.660;10.164;2023-07-16T06:10:53;95770.44;;;19.07;100.00
73674;BME280;61975;48.660;10.164;2023-07-16T06:13:18;95798.41;;;19.14;100.00
73674;BME280;61975;48.660;10.164;2023-07-16T06:15:45;95811.69;;;18.94;100.00
73674;BME280;61975;48.660;10.164;2023-07-16T06:18:11;95811.06;;;19.06;100.00
73674;BME280;61975;48.660;10.164;2023-07-16T06:20:37;95800.09;;;19.12;100.00
73674;BME280;61975;48.660;10.164;2023-07-16T06:23:02;95807.38;;;19.09;100.00
73674;BME280;61975;48.660;10.164;2023-07-16T06:25:27;95798.78;;;19.16;100.00
73674;BME280;61975;48.660;10.164;2023-07-16T06:27:53;95809.19;;;19.19;100.00
73674;BME280;61975;48.660;10.164;2023-07-16T06:30:19;95804.13;;;19.30;100.00
73674;BME280;61975;48.660;10.164;2023-07-16T06:32:44;95801.06;;;19.41;100.00
73674;BME280;61975;48.660;10.164;2023-07-16T06:35:10;95796.06;;;19.48;100.00
73674;BME280;61975;48.660;10.164;2023-07-16T06:37:35;95789.59;;;19.51;100.00
73674;BME280;61975;48.660;10.164;2023-07-16T06:40:00;95776.47;;;19.61;100.00
73674;BME280;61975;48.660;10.164;2023-07-16T06:42:26;95776.56;;;19.73;100.00
73674;BME280;61975;48.660;10.164;2023-07-16T06:44:51;95776.66;;;19.86;100.00
73674;BME280;61975;48.660;10.164;2023-07-16T06:47:17;95799.94;;;19.90;100.00
73674;BME280;61975;48.660;10.164;2023-07-16T06:49:42;95788.56;;;19.93;100.00
73674;BME280;61975;48.660;10.164;2023-07-16T06:52:07;95796.50;;;19.98;100.00
73674;BME280;61975;48.660;10.164;2023-07-16T06:54:33;95795.59;;;20.01;100.00
73674;BME280;61975;48.660;10.164;2023-07-16T06:56:59;95790.22;;;20.07;100.00
73674;BME280;61975;48.660;10.164;2023-07-16T06:59:25;95796.94;;;20.13;100.00
73674;BME280;61975;48.660;10.164;2023-07-16T07:01:50;95801.97;;;20.21;100.00
73674;BME280;61975;48.660;10.164;2023-07-16T07:04:16;95794.13;;;20.29;98.98
73674;BME280;61975;48.660;10.164;2023-07-16T07:06:41;95793.13;;;20.35;99.95
73674;BME280;61975;48.660;10.164;2023-07-16T07:09:07;95795.00;;;20.42;100.00
73674;BME280;61975;48.660;10.164;2023-07-16T07:11:32;95785.53;;;20.48;100.00
73674;BME280;61975;48.660;10.164;2023-07-16T07:13:57;95796.25;;;20.53;100.00
73674;BME280;61975;48.660;10.164;2023-07-16T07:16:23;95810.84;;;20.52;100.00
73674;BME280;61975;48.660;10.164;2023-07-16T07:18:49;95795.75;;;20.58;100.00
73674;BME280;61975;48.660;10.164;2023-07-16T07:21:14;95807.16;;;20.67;100.00
73674;BME280;61975;48.660;10.164;2023-07-16T07:23:40;95796.16;;;20.73;100.00
73674;BME280;61975;48.660;10.164;2023-07-16T07:26:05;95795.16;;;20.79;100.00
73674;BME280;61975;48.660;10.164;2023-07-16T07:28:31;95787.72;;;20.85;100.00
73674;BME280;61975;48.660;10.164;2023-07-16T07:30:56;95797.22;;;20.91;100.00
73674;BME280;61975;48.660;10.164;2023-07-16T07:33:22;95796.28;;;20.98;100.00
73674;BME280;61975;48.660;10.164;2023-07-16T07:35:47;95783.97;;;21.04;100.00
73674;BME280;61975;48.660;10.164;2023-07-16T07:38:13;95802.28;;;21.12;99.08
73674;BME280;61975;48.660;10.164;2023-07-16T07:40:38;95800.50;;;21.18;95.30
73674;BME280;61975;48.660;10.164;2023-07-16T07:43:03;95802.44;;;21.21;92.38
73674;BME280;61975;48.660;10.164;2023-07-16T07:45:29;95797.66;;;21.18;91.22
73674;BME280;61975;48.660;10.164;2023-07-16T07:47:54;95797.22;;;21.20;92.92
73674;BME280;61975;48.660;10.164;2023-07-16T07:50:20;95800.41;;;21.22;93.63
73674;BME280;61975;48.660;10.164;2023-07-16T07:52:45;95797.81;;;21.27;92.93
73674;BME280;61975;48.660;10.164;2023-07-16T07:55:11;95805.28;;;21.34;92.35
73674;BME280;61975;48.660;10.164;2023-07-16T07:57:36;95800.88;;;21.45;92.66
73674;BME280;61975;48.660;10.164;2023-07-16T08:00:02;95794.34;;;21.61;93.69
73674;BME280;61975;48.660;10.164;2023-07-16T08:02:28;95798.47;;;21.73;88.42
73674;BME280;61975;48.660;10.164;2023-07-16T08:04:54;95797.19;;;21.86;89.70
73674;BME280;61975;48.660;10.164;2023-07-16T08:07:22;95791.66;;;21.95;91.02
73674;BME280;61975;48.660;10.164;2023-07-16T08:09:48;95792.44;;;21.96;84.95
73674;BME280;61975;48.660;10.164;2023-07-16T08:12:14;95794.38;;;21.99;86.71
73674;BME280;61975;48.660;10.164;2023-07-16T08:14:40;95793.69;;;21.95;89.50
73674;BME280;61975;48.660;10.164;2023-07-16T08:17:07;95795.84;;;21.91;89.41
73674;BME280;61975;48.660;10.164;2023-07-16T08:19:32;95806.50;;;21.87;89.32
73674;BME280;61975;48.660;10.164;2023-07-16T08:21:58;95799.03;;;21.80;89.96
73674;BME280;61975;48.660;10.164;2023-07-16T08:24:24;95807.81;;;21.70;83.06
73674;BME280;61975;48.660;10.164;2023-07-16T08:26:50;95818.19;;;21.47;81.56
73674;BME280;61975;48.660;10.164;2023-07-16T08:29:15;95812.03;;;21.36;81.16
73674;BME280;61975;48.660;10.164;2023-07-16T08:31:41;95806.66;;;21.42;81.50
73674;BME280;61975;48.660;10.164;2023-07-16T08:34:06;95818.06;;;21.38;81.71
73674;BME280;61975;48.660;10.164;2023-07-16T08:36:36;95815.59;;;21.40;81.19
73674;BME280;61975;48.660;10.164;2023-07-16T08:39:02;95818.28;;;21.44;84.96
73674;BME280;61975;48.660;10.164;2023-07-16T08:41:28;95818.41;;;21.40;84.40
73674;BME280;61975;48.660;10.164;2023-07-16T08:43:54;95821.31;;;21.37;85.10
73674;BME280;61975;48.660;10.164;2023-07-16T08:46:20;95827.25;;;21.14;82.98
73674;BME280;61975;48.660;10.164;2023-07-16T08:48:45;95824.06;;;20.83;85.57
73674;BME280;61975;48.660;10.164;2023-07-16T08:51:14;95824.06;;;20.83;85.48
73674;BME280;61975;48.660;10.164;2023-07-16T08:53:39;95831.63;;;21.02;84.20
73674;BME280;61975;48.660;10.164;2023-07-16T08:56:05;95824.63;;;21.07;81.76
73674;BME280;61975;48.660;10.164;2023-07-16T08:58:31;95827.94;;;21.18;82.98
73674;BME280;61975;48.660;10.164;2023-07-16T09:00:58;95827.31;;;21.26;83.99
73674;BME280;61975;48.660;10.164;2023-07-16T09:03:24;95831.81;;;21.36;80.78
73674;BME280;61975;48.660;10.164;2023-07-16T09:05:50;95830.03;;;21.42;79.54
73674;BME280;61975;48.660;10.164;2023-07-16T09:08:15;95824.28;;;21.46;79.27
73674;BME280;61975;48.660;10.164;2023-07-16T09:10:41;95827.56;;;21.57;79.60
73674;BME280;61975;48.660;10.164;2023-07-16T09:13:07;95822.50;;;21.65;78.42
73674;BME280;61975;48.660;10.164;2023-07-16T09:15:32;95827.13;;;21.71;76.35
73674;BME280;61975;48.660;10.164;2023-07-16T09:18:00;95825.47;;;21.74;73.56
73674;BME280;61975;48.660;10.164;2023-07-16T09:20:25;95811.13;;;21.81;74.88
73674;BME280;61975;48.660;10.164;2023-07-16T09:22:56;95804.22;;;21.94;76.24
73674;BME280;61975;48.660;10.164;2023-07-16T09:25:31;95810.44;;;21.89;74.09
73674;BME280;61975;48.660;10.164;2023-07-16T09:28:02;95810.09;;;22.00;72.82
73674;BME280;61975;48.660;10.164;2023-07-16T09:30:32;95808.28;;;22.06;70.93
73674;BME280;61975;48.660;10.164;2023-07-16T09:35:37;95812.59;;;21.98;67.49
73674;BME280;61975;48.660;10.164;2023-07-16T09:38:03;95816.53;;;22.13;68.18
73674;BME280;61975;48.660;10.164;2023-07-16T09:40:28;95819.81;;;22.24;68.85
73674;BME280;61975;48.660;10.164;2023-07-16T09:42:54;95812.00;;;22.28;66.62
73674;BME280;61975;48.660;10.164;2023-07-16T09:45:20;95819.34;;;22.38;66.12
73674;BME280;61975;48.660;10.164;2023-07-16T09:47:46;95818.19;;;22.48;66.82
73674;BME280;61975;48.660;10.164;2023-07-16T09:50:12;95823.84;;;22.48;64.25
73674;BME280;61975;48.660;10.164;2023-07-16T09:52:37;95814.00;;;22.52;64.64
73674;BME280;61975;48.660;10.164;2023-07-16T09:55:05;95821.13;;;22.57;64.95
73674;BME280;61975;48.660;10.164;2023-07-16T09:57:40;95817.03;;;22.58;65.10
73674;BME280;61975;48.660;10.164;2023-07-16T10:00:09;95826.91;;;22.53;64.53
73674;BME280;61975;48.660;10.164;2023-07-16T10:02:37;95816.81;;;22.40;63.92
73674;BME280;61975;48.660;10.164;2023-07-16T10:07:54;95827.47;;;22.48;66.26
73674;BME280;61975;48.660;10.164;2023-07-16T10:10:20;95823.38;;;22.37;66.72
73674;BME280;61975;48.660;10.164;2023-07-16T10:12:56;95824.44;;;22.30;67.96
73674;BME280;61975;48.660;10.164;2023-07-16T10:15:29;95818.53;;;22.50;68.01
73674;BME280;61975;48.660;10.164;2023-07-16T10:17:55;95823.03;;;22.60;65.51
73674;BME280;61975;48.660;10.164;2023-07-16T10:20:34;95816.78;;;22.77;66.51
73674;BME280;61975;48.660;10.164;2023-07-16T10:23:13;95823.78;;;22.73;63.91
73674;BME280;61975;48.660;10.164;2023-07-16T10:25:40;95818.44;;;22.75;67.68
73674;BME280;61975;48.660;10.164;2023-07-16T10:28:05;95820.53;;;22.96;68.66
73674;BME280;61975;48.660;10.164;2023-07-16T10:30:32;95811.84;;;23.12;67.22
73674;BME280;61975;48.660;10.164;2023-07-16T10:32:58;95823.03;;;23.28;67.61
73674;BME280;61975;48.660;10.164;2023-07-16T10:35:25;95815.63;;;23.30;64.43
73674;BME280;61975;48.660;10.164;2023-07-16T10:37:51;95815.91;;;23.45;64.18
73674;BME280;61975;48.660;10.164;2023-07-16T10:40:16;95817.38;;;23.58;64.12
73674;BME280;61975;48.660;10.164;2023-07-16T10:42:42;95821.41;;;23.70;64.36
73674;BME280;61975;48.660;10.164;2023-07-16T10:45:09;95811.22;;;23.81;64.12
73674;BME280;61975;48.660;10.164;2023-07-16T10:47:37;95807.94;;;23.92;64.33
73674;BME280;61975;48.660;10.164;2023-07-16T10:50:04;95804.25;;;24.04;66.07
73674;BME280;61975;48.660;10.164;2023-07-16T10:52:31;95808.69;;;24.14;65.10
73674;BME280;61975;48.660;10.164;2023-07-16T10:54:56;95801.16;;;24.20;65.10
73674;BME280;61975;48.660;10.164;2023-07-16T10:57:24;95792.03;;;24.25;64.48
73674;BME280;61975;48.660;10.164;2023-07-16T10:59:57;95786.19;;;24.29;64.41
73674;BME280;61975;48.660;10.164;2023-07-16T11:02:24;95789.84;;;24.38;63.78
73674;BME280;61975;48.660;10.164;2023-07-16T11:04:50;95787.84;;;24.48;62.77
73674;BME280;61975;48.660;10.164;2023-07-16T11:07:18;95789.75;;;24.51;61.35
73674;BME280;61975;48.660;10.164;2023-07-16T11:09:45;95794.28;;;24.48;59.46
73674;BME280;61975;48.660;10.164;2023-07-16T11:12:13;95802.50;;;24.46;59.33
73674;BME280;61975;48.660;10.164;2023-07-16T11:14:43;95801.69;;;24.46;59.81
73674;BME280;61975;48.660;10.164;2023-07-16T11:17:09;95796.03;;;24.46;59.89
73674;BME280;61975;48.660;10.164;2023-07-16T11:19:36;95796.03;;;24.46;60.21
73674;BME280;61975;48.660;10.164;2023-07-16T11:22:04;95797.75;;;24.43;58.26
73674;BME280;61975;48.660;10.164;2023-07-16T11:24:56;95793.34;;;24.51;58.52
73674;BME280;61975;48.660;10.164;2023-07-16T11:27:25;95791.59;;;24.54;58.47
73674;BME280;61975;48.660;10.164;2023-07-16T11:29:57;95796.81;;;24.55;57.82
73674;BME280;61975;48.660;10.164;2023-07-16T11:34:59;95797.72;;;24.25;57.38
73674;BME280;61975;48.660;10.164;2023-07-16T11:37:27;95785.31;;;24.41;57.66
73674;BME280;61975;48.660;10.164;2023-07-16T11:39:57;95781.94;;;24.24;57.13
73674;BME280;61975;48.660;10.164;2023-07-16T11:42:34;95787.63;;;24.33;56.57
73674;BME280;61975;48.660;10.164;2023-07-16T11:45:00;95793.19;;;24.37;54.43
73674;BME280;61975;48.660;10.164;2023-07-16T11:47:26;95785.47;;;24.46;55.47
73674;BME280;61975;48.660;10.164;2023-07-16T11:49:52;95782.63;;;24.55;55.65
73674;BME280;61975;48.660;10.164;2023-07-16T11:52:22;95792.09;;;24.61;55.28
73674;BME280;61975;48.660;10.164;2023-07-16T11:54:48;95800.00;;;24.57;55.24
73674;BME280;61975;48.660;10.164;2023-07-16T11:57:15;95792.75;;;24.65;55.60
73674;BME280;61975;48.660;10.164;2023-07-16T11:59:40;95783.16;;;24.81;55.83
73674;BME280;61975;48.660;10.164;2023-07-16T12:02:06;95780.16;;;24.93;55.35
73674;BME280;61975;48.660;10.164;2023-07-16T12:04:32;95772.59;;;24.99;55.90
73674;BME280;61975;48.660;10.164;2023-07-16T12:06:57;95767.88;;;24.87;55.44
73674;BME280;61975;48.660;10.164;2023-07-16T12:09:22;95778.25;;;24.90;56.40
73674;BME280;61975;48.660;10.164;2023-07-16T12:11:48;95776.41;;;24.87;57.07
73674;BME280;61975;48.660;10.164;2023-07-16T12:14:13;95778.91;;;24.85;54.65
73674;BME280;61975;48.660;10.164;2023-07-16T12:16:39;95786.16;;;24.86;55.29
73674;BME280;61975;48.660;10.164;2023-07-16T12:19:07;95781.91;;;24.91;55.56
73674;BME280;61975;48.660;10.164;2023-07-16T12:21:32;95765.16;;;25.02;55.20
73674;BME280;61975;48.660;10.164;2023-07-16T12:23:57;95773.84;;;25.07;54.77
73674;BME280;61975;48.660;10.164;2023-07-16T12:26:23;95762.34;;;25.11;54.29
73674;BME280;61975;48.660;10.164;2023-07-16T12:28:48;95763.91;;;25.21;54.32
73674;BME280;61975;48.660;10.164;2023-07-16T12:31:14;95755.81;;;25.28;53.90
73674;BME280;61975;48.660;10.164;2023-07-16T12:33:40;95761.38;;;25.32;53.38
73674;BME280;61975;48.660;10.164;2023-07-16T12:36:06;95751.44;;;25.36;52.47
73674;BME280;61975;48.660;10.164;2023-07-16T12:38:31;95754.09;;;25.49;52.74
73674;BME280;61975;48.660;10.164;2023-07-16T12:40:56;95763.25;;;25.44;52.67
73674;BME280;61975;48.660;10.164;2023-07-16T12:43:22;95761.66;;;25.52;52.25
73674;BME280;61975;48.660;10.164;2023-07-16T12:45:47;95759.31;;;25.41;52.29
73674;BME280;61975;48.660;10.164;2023-07-16T12:48:12;95755.19;;;25.42;52.75
73674;BME280;61975;48.660;10.164;2023-07-16T12:50:38;95743.09;;;25.74;53.51
73674;BME280;61975;48.660;10.164;2023-07-16T12:53:03;95758.69;;;25.88;52.16